Huvudsida
METAR-TAF:

METAR-TAF

Flygplatser :

Ivato International Airport

Antananarivo, Madagaskar

latitud: 18-48S, longitud: 047-29E, höjd: 1279 m

Aktuellt väderrapport

Denna rapport gjordes för 20 minuter sedan, klockan 01:00 UTC
Vind 5 kt från syd/sydost
Temperatur 15°C
Fuktighet 88%
Tryck 1025 hPa
Sikt 10 km eller mer
Brutna moln på en höjd av 1700 ft

METAR: FMMI 230100Z 15005KT 9999 BKN017 15/13 Q1025 NOSIG

Tid: 04:20 (01:20 UTC)

Väderprognos

Denna rapport gjordes för 2 timmar och 20 minuter sedan, klockan 23:00 UTC
Prognos gäller från 23 kl. 00 UTC till 24 kl. 06 UTC
Vind 8 kt från syd/sydost
Sikt 10 km eller mer
Få moln på en höjd av 700 ft
Brutna moln på en höjd av 2000 ft

TAF: FMMI 222300Z 2300/2406 15008KT 9999 FEW007 BKN020

Aktuella väderrapporter och prognoser från 4000 flygplatser (METAR- och TAF-rapporter).

De tillgängliga stationerna syns som gula och röda prickar på kartan.

För musen över prickarna för att se namnen på stationerna.

Klicka sedan för att få väderrapporter och prognoser.

För att ändra kartan: Klicka på de gröna knapparna med ett svart kors på för att zooma in; den gröna knappen med ett streck på för att zooma ut; eller på de gröna pilarna för angränsande kartor.


METAR-TAF: